Nederlandse vliegveldverwachtingen (TAF)

Luchtvaartmeteorologische informatie voor operationeel gebruik en vluchtvoorbereiding is beschikbaar op www.luchtvaartmeteo.nl.

ZCZC
FC140900 EHWO AAA WOENSDRECHT/WOENSDRECHT   NLD   19 m.
TAF AMD EHWO 141438Z 1414/1422 CNL=

ZCZC
FC140900 EHGR AAB GILZE-RIJEN/GILZE-RIJEN   NLD   14 m.
TAF AMD EHGR 141453Z 1414/1422 CNL=

ZCZC
FC140900 EHLW AAC LEEUWARDEN/LEEUWARDEN   NLD   1 m.
TAF AMD EHLW 141456Z 1410/1422 CNL=

ZCZC
FC142100 EHVK RRA VOLKEL/VOLKEL   NLD   21 m.
TAF EHVK 142112Z 1422/1510 08004KT 9999 OVC040
    BECMG 1506/1508 13006KT=

ZCZC
FC142100 EHKD     DE KOOY/DE KOOY   NLD   1 m.
TAF EHKD 142100Z NIL=

ZCZC
FT142300 EHAM     AMSTERDAM/SCHIPHOL   NLD   -3 m.
TAF EHAM 142305Z 1500/1606 10007KT 9999 BKN035
    BECMG 1509/1512 13013KT CAVOK
    BECMG 1517/1520 13020KT
    BECMG 1522/1524 4000 -SN BKN014
    PROB40 TEMPO 1523/1603 1000 SN VV005
    BECMG 1603/1606 17010KT BR -DZ BKN005
    PROB30 TEMPO 1603/1605 2500 -FZRA=

ZCZC
FT142300 EHGG RRB GRONINGEN/EELDE   NLD   5 m.
TAF EHGG 142328Z 1500/1606 09004KT 9999 BKN040
    PROB30 1502/1510 7000
    BECMG 1510/1513 13010KT
    BECMG 1513/1516 14013G23KT
    BECMG 1603/1606 4000 -SN
    TEMPO 1603/1606 1200 SN BKN010=

ZCZC
FT142300 EHRD     ROTTERDAM/THE HAGUE AIRPORT   NLD   -5 m.
TAF EHRD 142305Z 1500/1606 10007KT 9999 BKN035
    BECMG 1509/1512 13013KT CAVOK
    BECMG 1517/1520 13020KT
    BECMG 1521/1523 4000 -SN -SNRA BKN014
    PROB30 TEMPO 1522/1602 1000 SN VV005
    BECMG 1602/1605 17010KT BR -DZRA BKN005
    PROB30 TEMPO 1602/1604 2500 -FZRA=

ZCZC
FT142300 EHBK CCA MAASTRICHT/MAASTRICHT-AACHEN   NLD   114 m.
TAF COR EHBK 142338Z 1500/1606 12004KT 9999 BKN035
    BECMG 1521/1524 4000 -SNRA
    PROB40 TEMPO 1523/1603 2000 -SN
    BECMG 1600/1603 18010KT BR BKN010
    PROB40 TEMPO 1603/1606 5000 -DZ -FZDZ BKN005=

ZCZC
FT142300 EHEH     EINDHOVEN/EINDHOVEN   NLD   22 m.
TAF EHEH 142336Z 1500/1606 08003KT 9999 SCT030 OVC035
    BECMG 1513/1515 13011KT
    BECMG 1523/1601 4000 SNRA BKN010
    PROB40 TEMPO 1600/1604 2000 SN BKN005
    PROB30 TEMPO 1600/1605 3000 FZRA RAPL
    BECMG 1603/1606 18008KT 4000 BR
    PROB30 TEMPO 1605/1606 4000 RA=

15/12/2018 01.15 uur LT